sensor_id;sensor_type;location;lat;lon;timestamp;pressure;altitude;pressure_sealevel;temperature;humidity
19777;BME280;10047;42.490;26.012;2023-03-15T00:01:37;99791.75;;;4.03;100.00
19777;BME280;10047;42.490;26.012;2023-03-15T00:04:02;99801.91;;;3.77;100.00
19777;BME280;10047;42.490;26.012;2023-03-15T00:06:33;99751.69;;;3.61;100.00
19777;BME280;10047;42.490;26.012;2023-03-15T00:08:59;99700.66;;;3.51;100.00
19777;BME280;10047;42.490;26.012;2023-03-15T00:11:27;99750.00;;;3.63;100.00
19777;BME280;10047;42.490;26.012;2023-03-15T00:13:58;99796.00;;;3.83;100.00
19777;BME280;10047;42.490;26.012;2023-03-15T00:16:24;99710.72;;;3.45;100.00
19777;BME280;10047;42.490;26.012;2023-03-15T00:18:53;99794.41;;;3.70;100.00
19777;BME280;10047;42.490;26.012;2023-03-15T00:21:19;99744.00;;;3.95;100.00
19777;BME280;10047;42.490;26.012;2023-03-15T00:23:45;99725.88;;;3.24;100.00
19777;BME280;10047;42.490;26.012;2023-03-15T00:26:11;99786.03;;;3.62;100.00
19777;BME280;10047;42.490;26.012;2023-03-15T00:28:37;99788.50;;;3.77;100.00
19777;BME280;10047;42.490;26.012;2023-03-15T00:31:15;99783.53;;;3.63;100.00
19777;BME280;10047;42.490;26.012;2023-03-15T00:33:41;99733.34;;;3.37;100.00
19777;BME280;10047;42.490;26.012;2023-03-15T00:36:08;99775.97;;;3.69;100.00
19777;BME280;10047;42.490;26.012;2023-03-15T00:38:35;99754.31;;;3.27;100.00
19777;BME280;10047;42.490;26.012;2023-03-15T00:41:11;99760.97;;;3.46;100.00
19777;BME280;10047;42.490;26.012;2023-03-15T00:43:37;99692.47;;;3.01;100.00
19777;BME280;10047;42.490;26.012;2023-03-15T00:46:03;99749.31;;;3.20;100.00
19777;BME280;10047;42.490;26.012;2023-03-15T00:48:29;99691.53;;;3.26;100.00
19777;BME280;10047;42.490;26.012;2023-03-15T00:51:12;99743.41;;;3.42;100.00
19777;BME280;10047;42.490;26.012;2023-03-15T00:53:40;99696.66;;;2.94;100.00
19777;BME280;10047;42.490;26.012;2023-03-15T00:56:08;99669.81;;;3.20;100.00
19777;BME280;10047;42.490;26.012;2023-03-15T00:58:35;99722.38;;;3.66;100.00
19777;BME280;10047;42.490;26.012;2023-03-15T01:01:07;99720.06;;;3.08;100.00
19777;BME280;10047;42.490;26.012;2023-03-15T01:03:32;99711.63;;;3.29;100.00
19777;BME280;10047;42.490;26.012;2023-03-15T01:05:58;99710.75;;;3.37;100.00
19777;BME280;10047;42.490;26.012;2023-03-15T01:08:23;99718.31;;;3.27;100.00
19777;BME280;10047;42.490;26.012;2023-03-15T01:10:49;99666.41;;;3.36;100.00
19777;BME280;10047;42.490;26.012;2023-03-15T01:13:14;99658.00;;;3.40;100.00
19777;BME280;10047;42.490;26.012;2023-03-15T01:15:44;99635.38;;;3.39;100.00
19777;BME280;10047;42.490;26.012;2023-03-15T01:18:10;99667.25;;;3.28;100.00
19777;BME280;10047;42.490;26.012;2023-03-15T01:20:35;99700.72;;;3.33;100.00
19777;BME280;10047;42.490;26.012;2023-03-15T01:23:01;99642.19;;;3.11;100.00
19777;BME280;10047;42.490;26.012;2023-03-15T01:25:26;99688.13;;;3.43;100.00
19777;BME280;10047;42.490;26.012;2023-03-15T01:27:52;99680.66;;;3.25;100.00
19777;BME280;10047;42.490;26.012;2023-03-15T01:30:17;99664.91;;;2.75;100.00
19777;BME280;10047;42.490;26.012;2023-03-15T01:32:42;99677.44;;;2.77;100.00
19777;BME280;10047;42.490;26.012;2023-03-15T01:35:08;99638.97;;;2.85;100.00
19777;BME280;10047;42.490;26.012;2023-03-15T01:37:33;99582.19;;;2.51;100.00
19777;BME280;10047;42.490;26.012;2023-03-15T01:39:59;99627.34;;;2.39;100.00
19777;BME280;10047;42.490;26.012;2023-03-15T01:42:24;99614.78;;;2.40;100.00
19777;BME280;10047;42.490;26.012;2023-03-15T01:44:55;99617.31;;;2.16;100.00
19777;BME280;10047;42.490;26.012;2023-03-15T01:47:22;99664.09;;;2.44;100.00
19777;BME280;10047;42.490;26.012;2023-03-15T01:49:55;99657.31;;;2.93;100.00
19777;BME280;10047;42.490;26.012;2023-03-15T01:52:29;99647.38;;;2.69;100.00
19777;BME280;10047;42.490;26.012;2023-03-15T01:55:00;99631.53;;;2.10;100.00
19777;BME280;10047;42.490;26.012;2023-03-15T01:57:31;99591.41;;;2.23;100.00
19777;BME280;10047;42.490;26.012;2023-03-15T02:00:14;99662.44;;;2.57;100.00
19777;BME280;10047;42.490;26.012;2023-03-15T02:03:07;99599.75;;;2.33;100.00
19777;BME280;10047;42.490;26.012;2023-03-15T02:05:42;99603.13;;;2.02;100.00
19777;BME280;10047;42.490;26.012;2023-03-15T02:08:11;99664.94;;;2.42;100.00
19777;BME280;10047;42.490;26.012;2023-03-15T02:10:42;99658.22;;;2.83;100.00
19777;BME280;10047;42.490;26.012;2023-03-15T02:13:10;99611.44;;;2.34;100.00
19777;BME280;10047;42.490;26.012;2023-03-15T02:15:36;99642.25;;;2.93;100.00
19777;BME280;10047;42.490;26.012;2023-03-15T02:18:02;99561.31;;;2.14;100.00
19777;BME280;10047;42.490;26.012;2023-03-15T02:23:10;99586.38;;;2.41;100.00
19777;BME280;10047;42.490;26.012;2023-03-15T02:28:21;99634.88;;;2.37;100.00
19777;BME280;10047;42.490;26.012;2023-03-15T02:30:47;99618.16;;;2.20;100.00
19777;BME280;10047;42.490;26.012;2023-03-15T02:36:27;99661.63;;;2.22;100.00
19777;BME280;10047;42.490;26.012;2023-03-15T02:38:54;99664.91;;;1.88;100.00
19777;BME280;10047;42.490;26.012;2023-03-15T02:41:25;99663.28;;;2.08;100.00
19777;BME280;10047;42.490;26.012;2023-03-15T02:43:54;99618.97;;;1.89;100.00
19777;BME280;10047;42.490;26.012;2023-03-15T02:46:21;99633.19;;;2.11;100.00
19777;BME280;10047;42.490;26.012;2023-03-15T02:48:48;99666.63;;;2.31;100.00
19777;BME280;10047;42.490;26.012;2023-03-15T02:51:18;99670.78;;;2.05;100.00
19777;BME280;10047;42.490;26.012;2023-03-15T02:53:45;99667.47;;;2.24;100.00
19777;BME280;10047;42.490;26.012;2023-03-15T02:56:10;99634.88;;;2.27;100.00
19777;BME280;10047;42.490;26.012;2023-03-15T02:58:35;99659.94;;;2.31;100.00
19777;BME280;10047;42.490;26.012;2023-03-15T03:01:01;99619.84;;;2.00;100.00
19777;BME280;10047;42.490;26.012;2023-03-15T03:03:26;99628.13;;;1.74;100.00
19777;BME280;10047;42.490;26.012;2023-03-15T03:05:52;99679.13;;;1.93;100.00
19777;BME280;10047;42.490;26.012;2023-03-15T03:08:17;99633.16;;;1.81;100.00
19777;BME280;10047;42.490;26.012;2023-03-15T03:10:43;99658.22;;;1.77;100.00
19777;BME280;10047;42.490;26.012;2023-03-15T03:13:20;99664.94;;;2.09;100.00
19777;BME280;10047;42.490;26.012;2023-03-15T03:15:48;99630.66;;;1.65;100.00
19777;BME280;10047;42.490;26.012;2023-03-15T03:18:13;99634.81;;;1.54;100.00
19777;BME280;10047;42.490;26.012;2023-03-15T03:20:39;99621.50;;;1.78;100.00
19777;BME280;10047;42.490;26.012;2023-03-15T03:23:04;99678.31;;;2.29;100.00
19777;BME280;10047;42.490;26.012;2023-03-15T03:25:31;99615.63;;;1.93;100.00
19777;BME280;10047;42.490;26.012;2023-03-15T03:27:57;99670.78;;;2.38;100.00
19777;BME280;10047;42.490;26.012;2023-03-15T03:30:22;99664.94;;;2.40;100.00
19777;BME280;10047;42.490;26.012;2023-03-15T03:32:48;99596.44;;;1.93;100.00
19777;BME280;10047;42.490;26.012;2023-03-15T03:35:14;99659.94;;;2.37;100.00
19777;BME280;10047;42.490;26.012;2023-03-15T03:37:40;99605.59;;;2.39;100.00
19777;BME280;10047;42.490;26.012;2023-03-15T03:40:06;99569.69;;;2.18;100.00
19777;BME280;10047;42.490;26.012;2023-03-15T03:42:36;99657.38;;;2.61;100.00
19777;BME280;10047;42.490;26.012;2023-03-15T03:45:01;99664.84;;;3.04;100.00
19777;BME280;10047;42.490;26.012;2023-03-15T03:47:27;99651.50;;;2.88;100.00
19777;BME280;10047;42.490;26.012;2023-03-15T03:49:52;99671.56;;;2.84;100.00
19777;BME280;10047;42.490;26.012;2023-03-15T03:52:17;99619.81;;;2.40;100.00
19777;BME280;10047;42.490;26.012;2023-03-15T03:54:43;99652.31;;;2.90;100.00
19777;BME280;10047;42.490;26.012;2023-03-15T03:57:09;99655.69;;;2.82;100.00
19777;BME280;10047;42.490;26.012;2023-03-15T03:59:39;99664.78;;;3.19;100.00
19777;BME280;10047;42.490;26.012;2023-03-15T04:02:04;99602.16;;;2.81;100.00
19777;BME280;10047;42.490;26.012;2023-03-15T04:04:30;99657.25;;;3.16;100.00
19777;BME280;10047;42.490;26.012;2023-03-15T04:06:55;99602.97;;;2.92;100.00
19777;BME280;10047;42.490;26.012;2023-03-15T04:09:20;99648.91;;;3.09;100.00
19777;BME280;10047;42.490;26.012;2023-03-15T04:11:49;99615.59;;;2.67;100.00
19777;BME280;10047;42.490;26.012;2023-03-15T04:14:14;99658.19;;;2.80;100.00
19777;BME280;10047;42.490;26.012;2023-03-15T04:16:40;99620.63;;;2.53;100.00
19777;BME280;10047;42.490;26.012;2023-03-15T04:19:06;99609.78;;;2.36;100.00
19777;BME280;10047;42.490;26.012;2023-03-15T04:21:32;99670.75;;;2.83;100.00
19777;BME280;10047;42.490;26.012;2023-03-15T04:23:58;99623.09;;;2.67;100.00
19777;BME280;10047;42.490;26.012;2023-03-15T04:26:25;99671.63;;;2.56;100.00
19777;BME280;10047;42.490;26.012;2023-03-15T04:28:54;99620.66;;;2.17;100.00
19777;BME280;10047;42.490;26.012;2023-03-15T04:31:21;99620.66;;;2.20;100.00
19777;BME280;10047;42.490;26.012;2023-03-15T04:33:54;99666.63;;;2.43;100.00
19777;BME280;10047;42.490;26.012;2023-03-15T04:36:21;99667.44;;;2.46;100.00
19777;BME280;10047;42.490;26.012;2023-03-15T04:38:48;99656.59;;;2.55;100.00
19777;BME280;10047;42.490;26.012;2023-03-15T04:41:15;99628.94;;;5.09;100.00
19777;BME280;10047;42.490;26.012;2023-03-15T04:43:41;99599.69;;;2.61;100.00
19777;BME280;10047;42.490;26.012;2023-03-15T04:46:07;99636.53;;;2.49;100.00
19777;BME280;10047;42.490;26.012;2023-03-15T04:48:33;99570.53;;;1.93;100.00
19777;BME280;10047;42.490;26.012;2023-03-15T04:50:58;99659.94;;;2.40;100.00
19777;BME280;10047;42.490;26.012;2023-03-15T04:53:25;99635.69;;;2.48;100.00
19777;BME280;10047;42.490;26.012;2023-03-15T04:55:51;99629.81;;;2.54;100.00
19777;BME280;10047;42.490;26.012;2023-03-15T04:58:16;99608.03;;;2.63;100.00
19777;BME280;10047;42.490;26.012;2023-03-15T05:00:42;99632.25;;;2.89;100.00
19777;BME280;10047;42.490;26.012;2023-03-15T05:03:07;99644.88;;;2.51;100.00
19777;BME280;10047;42.490;26.012;2023-03-15T05:05:33;99651.53;;;2.73;100.00
19777;BME280;10047;42.490;26.012;2023-03-15T05:07:58;99650.59;;;3.15;100.00
19777;BME280;10047;42.490;26.012;2023-03-15T05:10:24;99554.56;;;2.58;100.00
19777;BME280;10047;42.490;26.012;2023-03-15T05:12:50;99607.03;;;5.78;100.00
19777;BME280;10047;42.490;26.012;2023-03-15T05:15:17;99641.22;;;3.45;100.00
19777;BME280;10047;42.490;26.012;2023-03-15T05:17:43;99653.97;;;2.94;100.00
19777;BME280;10047;42.490;26.012;2023-03-15T05:20:11;99618.75;;;5.17;100.00
19777;BME280;10047;42.490;26.012;2023-03-15T05:22:38;99603.94;;;6.14;100.00
19777;BME280;10047;42.490;26.012;2023-03-15T05:25:05;99611.03;;;4.59;100.00
19777;BME280;10047;42.490;26.012;2023-03-15T05:27:31;99613.50;;;3.59;100.00
19777;BME280;10047;42.490;26.012;2023-03-15T05:29:58;99647.78;;;3.69;100.00
19777;BME280;10047;42.490;26.012;2023-03-15T05:32:23;99656.22;;;3.64;100.00
19777;BME280;10047;42.490;26.012;2023-03-15T05:34:51;99604.41;;;3.40;100.00
19777;BME280;10047;42.490;26.012;2023-03-15T05:37:21;99591.78;;;3.49;100.00
19777;BME280;10047;42.490;26.012;2023-03-15T05:39:47;99550.22;;;4.92;100.00
19777;BME280;10047;42.490;26.012;2023-03-15T05:42:13;99595.66;;;3.95;100.00
19777;BME280;10047;42.490;26.012;2023-03-15T05:44:39;99539.88;;;5.15;100.00
19777;BME280;10047;42.490;26.012;2023-03-15T05:47:04;99569.50;;;4.93;100.00
19777;BME280;10047;42.490;26.012;2023-03-15T05:49:30;99581.28;;;4.11;100.00
19777;BME280;10047;42.490;26.012;2023-03-15T05:51:55;99584.78;;;3.93;100.00
19777;BME280;10047;42.490;26.012;2023-03-15T05:54:21;99559.75;;;3.84;100.00
19777;BME280;10047;42.490;26.012;2023-03-15T05:56:46;99616.25;;;4.41;100.00
19777;BME280;10047;42.490;26.012;2023-03-15T05:59:12;99560.94;;;4.35;100.00
19777;BME280;10047;42.490;26.012;2023-03-15T06:01:40;99579.69;;;4.01;100.00
19777;BME280;10047;42.490;26.012;2023-03-15T06:04:06;99607.19;;;4.20;100.00
19777;BME280;10047;42.490;26.012;2023-03-15T06:06:31;99565.63;;;4.68;100.00
19777;BME280;10047;42.490;26.012;2023-03-15T06:08:56;99601.94;;;4.48;100.00
19777;BME280;10047;42.490;26.012;2023-03-15T06:11:22;99617.22;;;4.25;100.00
19777;BME280;10047;42.490;26.012;2023-03-15T06:13:47;99573.16;;;4.71;100.00
19777;BME280;10047;42.490;26.012;2023-03-15T06:16:13;99596.44;;;4.88;100.00
19777;BME280;10047;42.490;26.012;2023-03-15T06:18:38;99608.72;;;5.14;100.00
19777;BME280;10047;42.490;26.012;2023-03-15T06:21:04;99543.28;;;5.11;100.00
19777;BME280;10047;42.490;26.012;2023-03-15T06:23:29;99598.19;;;5.49;100.00
19777;BME280;10047;42.490;26.012;2023-03-15T06:25:54;99553.16;;;5.26;100.00
19777;BME280;10047;42.490;26.012;2023-03-15T06:28:20;99610.97;;;5.37;100.00
19777;BME280;10047;42.490;26.012;2023-03-15T06:30:45;99618.50;;;5.99;100.00
19777;BME280;10047;42.490;26.012;2023-03-15T06:33:11;99630.50;;;5.82;100.00
19777;BME280;10047;42.490;26.012;2023-03-15T06:35:36;99624.50;;;5.92;100.00
19777;BME280;10047;42.490;26.012;2023-03-15T06:38:01;99601.38;;;6.16;100.00
19777;BME280;10047;42.490;26.012;2023-03-15T06:40:27;99633.81;;;5.82;100.00
19777;BME280;10047;42.490;26.012;2023-03-15T06:42:52;99596.84;;;5.86;100.00
19777;BME280;10047;42.490;26.012;2023-03-15T06:45:18;99607.19;;;6.21;100.00
19777;BME280;10047;42.490;26.012;2023-03-15T06:47:44;99653.06;;;6.44;100.00
19777;BME280;10047;42.490;26.012;2023-03-15T06:50:10;99560.88;;;5.12;100.00
19777;BME280;10047;42.490;26.012;2023-03-15T06:52:36;99657.09;;;6.04;100.00
19777;BME280;10047;42.490;26.012;2023-03-15T06:55:03;99650.44;;;5.98;100.00
19777;BME280;10047;42.490;26.012;2023-03-15T06:57:28;99654.81;;;5.87;100.00
19777;BME280;10047;42.490;26.012;2023-03-15T06:59:54;99605.34;;;5.77;100.00
19777;BME280;10047;42.490;26.012;2023-03-15T07:02:19;99616.50;;;6.19;100.00
19777;BME280;10047;42.490;26.012;2023-03-15T07:04:45;99613.53;;;5.93;100.00
19777;BME280;10047;42.490;26.012;2023-03-15T07:07:12;99656.94;;;6.14;100.00
19777;BME280;10047;42.490;26.012;2023-03-15T07:09:38;99606.38;;;5.64;100.00
19777;BME280;10047;42.490;26.012;2023-03-15T07:12:05;99661.22;;;6.09;100.00
19777;BME280;10047;42.490;26.012;2023-03-15T07:14:33;99619.44;;;5.92;100.00
19777;BME280;10047;42.490;26.012;2023-03-15T07:16:58;99610.75;;;5.52;100.00
19777;BME280;10047;42.490;26.012;2023-03-15T07:19:24;99648.97;;;5.85;100.00
19777;BME280;10047;42.490;26.012;2023-03-15T07:21:49;99615.56;;;6.25;100.00
19777;BME280;10047;42.490;26.012;2023-03-15T07:24:16;99634.28;;;6.11;100.00
19777;BME280;10047;42.490;26.012;2023-03-15T07:26:41;99608.84;;;6.22;100.00
19777;BME280;10047;42.490;26.012;2023-03-15T07:29:06;99636.41;;;6.34;100.00
19777;BME280;10047;42.490;26.012;2023-03-15T07:31:32;99584.44;;;6.71;100.00
19777;BME280;10047;42.490;26.012;2023-03-15T07:33:57;99577.88;;;6.60;100.00
19777;BME280;10047;42.490;26.012;2023-03-15T07:36:23;99578.44;;;6.31;100.00
19777;BME280;10047;42.490;26.012;2023-03-15T07:38:48;99605.09;;;6.90;100.00
19777;BME280;10047;42.490;26.012;2023-03-15T07:41:13;99604.25;;;6.89;100.00
19777;BME280;10047;42.490;26.012;2023-03-15T07:43:39;99549.06;;;6.71;100.00
19777;BME280;10047;42.490;26.012;2023-03-15T07:46:04;99554.72;;;6.38;100.00
19777;BME280;10047;42.490;26.012;2023-03-15T07:48:31;99559.22;;;6.68;100.00
19777;BME280;10047;42.490;26.012;2023-03-15T07:50:57;99591.63;;;6.89;100.00
19777;BME280;10047;42.490;26.012;2023-03-15T07:53:22;99583.66;;;7.09;100.00
19777;BME280;10047;42.490;26.012;2023-03-15T07:55:48;99585.31;;;7.50;100.00
19777;BME280;10047;42.490;26.012;2023-03-15T07:58:14;99541.34;;;7.19;100.00
19777;BME280;10047;42.490;26.012;2023-03-15T08:00:40;99532.16;;;7.15;100.00
19777;BME280;10047;42.490;26.012;2023-03-15T08:03:05;99562.47;;;7.54;100.00
19777;BME280;10047;42.490;26.012;2023-03-15T08:05:32;99570.19;;;7.48;100.00
19777;BME280;10047;42.490;26.012;2023-03-15T08:07:58;99510.22;;;7.53;100.00
19777;BME280;10047;42.490;26.012;2023-03-15T08:10:24;99532.25;;;7.48;100.00
19777;BME280;10047;42.490;26.012;2023-03-15T08:12:49;99541.41;;;7.54;100.00
19777;BME280;10047;42.490;26.012;2023-03-15T08:15:15;99520.00;;;8.02;100.00
19777;BME280;10047;42.490;26.012;2023-03-15T08:17:41;99529.22;;;7.69;100.00
19777;BME280;10047;42.490;26.012;2023-03-15T08:20:07;99564.94;;;8.26;100.00
19777;BME280;10047;42.490;26.012;2023-03-15T08:22:36;99559.94;;;8.57;100.00
19777;BME280;10047;42.490;26.012;2023-03-15T08:25:03;99545.22;;;8.39;100.00
19777;BME280;10047;42.490;26.012;2023-03-15T08:27:28;99557.00;;;8.40;100.00
19777;BME280;10047;42.490;26.012;2023-03-15T08:29:54;99567.91;;;8.42;100.00
19777;BME280;10047;42.490;26.012;2023-03-15T08:32:19;99579.28;;;8.27;100.00
19777;BME280;10047;42.490;26.012;2023-03-15T08:34:45;99550.56;;;8.90;100.00
19777;BME280;10047;42.490;26.012;2023-03-15T08:37:11;99564.31;;;8.50;100.00
19777;BME280;10047;42.490;26.012;2023-03-15T08:39:37;99528.69;;;7.90;100.00
19777;BME280;10047;42.490;26.012;2023-03-15T08:42:03;99560.56;;;8.33;100.00
19777;BME280;10047;42.490;26.012;2023-03-15T08:44:28;99475.88;;;9.01;100.00
19777;BME280;10047;42.490;26.012;2023-03-15T08:46:54;99566.09;;;8.79;100.00
19777;BME280;10047;42.490;26.012;2023-03-15T08:49:20;99528.63;;;8.59;100.00
19777;BME280;10047;42.490;26.012;2023-03-15T08:51:45;99515.88;;;8.92;100.00
19777;BME280;10047;42.490;26.012;2023-03-15T08:54:11;99530.72;;;9.33;100.00
19777;BME280;10047;42.490;26.012;2023-03-15T08:56:38;99525.41;;;10.43;100.00
19777;BME280;10047;42.490;26.012;2023-03-15T08:59:03;99577.66;;;10.00;100.00
19777;BME280;10047;42.490;26.012;2023-03-15T09:01:29;99537.56;;;10.09;100.00
19777;BME280;10047;42.490;26.012;2023-03-15T09:03:54;99526.28;;;10.42;100.00
19777;BME280;10047;42.490;26.012;2023-03-15T09:06:20;99546.34;;;9.73;100.00
19777;BME280;10047;42.490;26.012;2023-03-15T09:08:46;99546.78;;;9.86;100.00
19777;BME280;10047;42.490;26.012;2023-03-15T09:11:11;99567.25;;;10.33;100.00
19777;BME280;10047;42.490;26.012;2023-03-15T09:13:37;99561.06;;;10.88;100.00
19777;BME280;10047;42.490;26.012;2023-03-15T09:16:03;99518.19;;;10.31;100.00
19777;BME280;10047;42.490;26.012;2023-03-15T09:18:29;99521.09;;;11.15;100.00
19777;BME280;10047;42.490;26.012;2023-03-15T09:20:55;99521.81;;;10.95;100.00
19777;BME280;10047;42.490;26.012;2023-03-15T09:23:20;99562.75;;;11.34;100.00
19777;BME280;10047;42.490;26.012;2023-03-15T09:25:45;99541.88;;;10.80;100.00
19777;BME280;10047;42.490;26.012;2023-03-15T09:28:11;99576.34;;;10.64;100.00
19777;BME280;10047;42.490;26.012;2023-03-15T09:30:38;99526.81;;;11.20;100.00
19777;BME280;10047;42.490;26.012;2023-03-15T09:33:04;99545.09;;;11.29;100.00
19777;BME280;10047;42.490;26.012;2023-03-15T09:35:30;99482.75;;;10.75;100.00
19777;BME280;10047;42.490;26.012;2023-03-15T09:37:56;99557.66;;;11.56;100.00
19777;BME280;10047;42.490;26.012;2023-03-15T09:40:42;99560.75;;;11.42;100.00
19777;BME280;10047;42.490;26.012;2023-03-15T09:48:39;99555.06;;;11.57;100.00
19777;BME280;10047;42.490;26.012;2023-03-15T09:51:57;99556.03;;;11.76;100.00
19777;BME280;10047;42.490;26.012;2023-03-15T09:54:09;99552.59;;;11.77;100.00
19777;BME280;10047;42.490;26.012;2023-03-15T09:56:44;99499.66;;;11.42;100.00
19777;BME280;10047;42.490;26.012;2023-03-15T09:59:13;99503.63;;;11.71;100.00
19777;BME280;10047;42.490;26.012;2023-03-15T10:01:42;99548.66;;;12.51;100.00
19777;BME280;10047;42.490;26.012;2023-03-15T10:04:27;99543.31;;;11.76;100.00
19777;BME280;10047;42.490;26.012;2023-03-15T10:06:56;99533.38;;;12.51;100.00
19777;BME280;10047;42.490;26.012;2023-03-15T10:09:25;99495.75;;;12.56;100.00
19777;BME280;10047;42.490;26.012;2023-03-15T10:18:15;99524.56;;;11.77;100.00
19777;BME280;10047;42.490;26.012;2023-03-15T10:20:54;99499.13;;;11.34;100.00
19777;BME280;10047;42.490;26.012;2023-03-15T10:23:31;99520.63;;;11.49;100.00
19777;BME280;10047;42.490;26.012;2023-03-15T10:26:03;99530.00;;;12.50;100.00
19777;BME280;10047;42.490;26.012;2023-03-15T10:28:30;99536.47;;;11.77;100.00
19777;BME280;10047;42.490;26.012;2023-03-15T10:31:12;99498.47;;;12.12;100.00
19777;BME280;10047;42.490;26.012;2023-03-15T10:33:38;99463.84;;;11.68;100.00
19777;BME280;10047;42.490;26.012;2023-03-15T10:36:21;99489.00;;;11.96;100.00
19777;BME280;10047;42.490;26.012;2023-03-15T10:38:48;99513.13;;;12.66;100.00
19777;BME280;10047;42.490;26.012;2023-03-15T10:41:47;99501.56;;;12.96;100.00
19777;BME280;10047;42.490;26.012;2023-03-15T10:46:40;99513.81;;;12.51;100.00
19777;BME280;10047;42.490;26.012;2023-03-15T10:49:12;99479.09;;;12.86;100.00
19777;BME280;10047;42.490;26.012;2023-03-15T10:51:47;99523.53;;;12.23;100.00
19777;BME280;10047;42.490;26.012;2023-03-15T10:59:24;99500.91;;;12.15;100.00
19777;BME280;10047;42.490;26.012;2023-03-15T11:04:40;99439.38;;;12.04;100.00
19777;BME280;10047;42.490;26.012;2023-03-15T11:07:06;99496.50;;;11.99;100.00
19777;BME280;10047;42.490;26.012;2023-03-15T11:09:52;99444.19;;;11.72;100.00
19777;BME280;10047;42.490;26.012;2023-03-15T11:12:24;99486.22;;;12.02;100.00
19777;BME280;10047;42.490;26.012;2023-03-15T11:15:19;99481.72;;;12.27;100.00
19777;BME280;10047;42.490;26.012;2023-03-15T11:17:48;99434.84;;;12.50;100.00
19777;BME280;10047;42.490;26.012;2023-03-15T11:20:33;99471.59;;;13.37;100.00
19777;BME280;10047;42.490;26.012;2023-03-15T11:23:10;99432.50;;;13.37;100.00
19777;BME280;10047;42.490;26.012;2023-03-15T11:25:37;99423.06;;;14.06;100.00
19777;BME280;10047;42.490;26.012;2023-03-15T11:28:03;99442.69;;;13.37;100.00
19777;BME280;10047;42.490;26.012;2023-03-15T11:30:29;99426.13;;;13.62;100.00
19777;BME280;10047;42.490;26.012;2023-03-15T11:33:02;99487.38;;;14.48;100.00
19777;BME280;10047;42.490;26.012;2023-03-15T11:35:40;99476.06;;;15.30;100.00
19777;BME280;10047;42.490;26.012;2023-03-15T11:41:01;99482.25;;;14.48;100.00
19777;BME280;10047;42.490;26.012;2023-03-15T11:43:52;99451.50;;;14.65;100.00
19777;BME280;10047;42.490;26.012;2023-03-15T11:46:26;99464.59;;;14.59;100.00
19777;BME280;10047;42.490;26.012;2023-03-15T11:49:06;99491.03;;;15.83;100.00
19777;BME280;10047;42.490;26.012;2023-03-15T11:51:35;99521.94;;;15.34;100.00
19777;BME280;10047;42.490;26.012;2023-03-15T11:54:17;99497.41;;;15.76;100.00
19777;BME280;10047;42.490;26.012;2023-03-15T11:59:47;99512.16;;;14.63;100.00
19777;BME280;10047;42.490;26.012;2023-03-15T12:04:51;99458.91;;;15.16;100.00
19777;BME280;10047;42.490;26.012;2023-03-15T12:12:37;99494.78;;;14.85;100.00
19777;BME280;10047;42.490;26.012;2023-03-15T12:22:39;99491.56;;;13.82;100.00
19777;BME280;10047;42.490;26.012;2023-03-15T12:25:14;99492.72;;;13.41;100.00
19777;BME280;10047;42.490;26.012;2023-03-15T12:27:47;99463.31;;;13.15;100.00
19777;BME280;10047;42.490;26.012;2023-03-15T12:30:22;99446.75;;;13.41;100.00
19777;BME280;10047;42.490;26.012;2023-03-15T12:32:52;99437.22;;;13.78;100.00
19777;BME280;10047;42.490;26.012;2023-03-15T12:35:20;99444.53;;;13.16;100.00
19777;BME280;10047;42.490;26.012;2023-03-15T12:37:48;99508.44;;;13.84;100.00
19777;BME280;10047;42.490;26.012;2023-03-15T12:58:46;99480.25;;;14.03;100.00
19777;BME280;10047;42.490;26.012;2023-03-15T13:01:14;99493.31;;;13.63;100.00
19777;BME280;10047;42.490;26.012;2023-03-15T13:03:41;99461.13;;;13.60;100.00
19777;BME280;10047;42.490;26.012;2023-03-15T13:12:36;99501.47;;;14.05;100.00
19777;BME280;10047;42.490;26.012;2023-03-15T13:14:54;99517.94;;;13.82;100.00
19777;BME280;10047;42.490;26.012;2023-03-15T13:20:17;99511.25;;;14.14;100.00
19777;BME280;10047;42.490;26.012;2023-03-15T13:25:33;99427.81;;;13.28;100.00
19777;BME280;10047;42.490;26.012;2023-03-15T13:28:26;99502.66;;;13.64;100.00
19777;BME280;10047;42.490;26.012;2023-03-15T13:31:09;99471.09;;;13.48;100.00
19777;BME280;10047;42.490;26.012;2023-03-15T13:33:37;99466.53;;;13.54;100.00
19777;BME280;10047;42.490;26.012;2023-03-15T13:36:04;99451.78;;;13.93;100.00
19777;BME280;10047;42.490;26.012;2023-03-15T13:38:43;99498.81;;;14.41;100.00
19777;BME280;10047;42.490;26.012;2023-03-15T13:43:49;99520.03;;;14.43;100.00
19777;BME280;10047;42.490;26.012;2023-03-15T13:46:18;99505.59;;;13.73;100.00
19777;BME280;10047;42.490;26.012;2023-03-15T13:48:46;99517.00;;;14.01;100.00
19777;BME280;10047;42.490;26.012;2023-03-15T13:53:40;99480.72;;;13.60;100.00
19777;BME280;10047;42.490;26.012;2023-03-15T13:56:07;99483.28;;;13.77;100.00
19777;BME280;10047;42.490;26.012;2023-03-15T13:58:36;99462.69;;;13.63;100.00
19777;BME280;10047;42.490;26.012;2023-03-15T14:01:07;99474.88;;;13.92;100.00
19777;BME280;10047;42.490;26.012;2023-03-15T14:03:33;99514.84;;;14.10;100.00
19777;BME280;10047;42.490;26.012;2023-03-15T14:05:59;99539.72;;;14.07;100.00
19777;BME280;10047;42.490;26.012;2023-03-15T14:08:34;99531.31;;;13.87;100.00
19777;BME280;10047;42.490;26.012;2023-03-15T14:16:41;99469.50;;;13.45;100.00
19777;BME280;10047;42.490;26.012;2023-03-15T14:19:14;99536.28;;;14.08;100.00
19777;BME280;10047;42.490;26.012;2023-03-15T14:21:44;99532.56;;;13.79;100.00
19777;BME280;10047;42.490;26.012;2023-03-15T14:24:20;99498.22;;;13.67;100.00
19777;BME280;10047;42.490;26.012;2023-03-15T14:26:55;99452.25;;;13.50;100.00